createdAt,value
2023-03-27T00:00:14.882Z,35.84
2023-03-27T00:01:18.775Z,35.94
2023-03-27T00:02:23.090Z,35.72
2023-03-27T00:03:28.743Z,36.02
2023-03-27T00:04:32.602Z,36.07
2023-03-27T00:05:36.266Z,36.08
2023-03-27T00:06:40.047Z,36.09
2023-03-27T00:07:43.702Z,36.09
2023-03-27T00:08:48.494Z,36.19
2023-03-27T00:09:52.259Z,36.21
2023-03-27T00:10:56.138Z,36.22
2023-03-27T00:12:00.100Z,36.24
2023-03-27T00:13:04.434Z,36.06
2023-03-27T00:14:08.191Z,36.24
2023-03-27T00:15:14.948Z,36.24
2023-03-27T00:16:18.635Z,36.26
2023-03-27T00:17:22.297Z,36.29
2023-03-27T00:18:26.447Z,36.29
2023-03-27T00:19:30.055Z,36.42
2023-03-27T00:20:34.478Z,36.41
2023-03-27T00:21:38.104Z,36.43
2023-03-27T00:22:41.972Z,36.40
2023-03-27T00:23:45.655Z,36.51
2023-03-27T00:24:49.322Z,36.41
2023-03-27T00:25:52.970Z,36.32
2023-03-27T00:26:56.576Z,36.49
2023-03-27T00:28:01.011Z,36.60
2023-03-27T00:29:04.782Z,36.71
2023-03-27T00:30:10.856Z,36.45
2023-03-27T00:31:16.953Z,36.78
2023-03-27T00:32:20.634Z,36.64
2023-03-27T00:33:24.827Z,36.60
2023-03-27T00:34:28.450Z,36.71
2023-03-27T00:35:32.281Z,36.56
2023-03-27T00:36:36.538Z,36.51
2023-03-27T00:37:40.274Z,36.44
2023-03-27T00:38:43.970Z,36.45
2023-03-27T00:39:47.956Z,36.72
2023-03-27T00:40:51.844Z,36.72
2023-03-27T00:41:55.807Z,36.76
2023-03-27T00:42:59.569Z,36.74
2023-03-27T00:44:20.852Z,36.85
2023-03-27T00:45:26.892Z,36.49
2023-03-27T00:46:39.396Z,36.54
2023-03-27T00:47:50.588Z,36.51
2023-03-27T00:48:55.589Z,36.68
2023-03-27T00:50:00.701Z,36.78
2023-03-27T00:51:06.274Z,36.74
2023-03-27T00:52:09.954Z,36.41
2023-03-27T00:53:16.680Z,36.72
2023-03-27T00:54:25.425Z,36.76
2023-03-27T00:55:32.003Z,36.89
2023-03-27T00:56:36.113Z,36.90
2023-03-27T00:57:39.886Z,37.00
2023-03-27T00:58:46.867Z,37.08
2023-03-27T00:59:55.047Z,36.91
2023-03-27T01:00:59.144Z,37.01
2023-03-27T01:02:05.610Z,36.97
2023-03-27T01:03:10.703Z,36.98
2023-03-27T01:04:14.653Z,37.16
2023-03-27T01:05:20.143Z,37.25
2023-03-27T01:06:23.970Z,37.22
2023-03-27T01:07:27.610Z,36.99
2023-03-27T01:08:32.682Z,37.04
2023-03-27T01:09:36.418Z,37.01
2023-03-27T01:10:53.098Z,37.05
2023-03-27T01:12:11.367Z,37.22
2023-03-27T01:13:28.428Z,37.36
2023-03-27T01:14:37.482Z,37.38
2023-03-27T01:15:48.637Z,37.26
2023-03-27T01:17:05.335Z,37.24
2023-03-27T01:18:23.491Z,37.13
2023-03-27T01:19:49.495Z,37.19
2023-03-27T01:21:31.519Z,37.12
2023-03-27T01:23:13.441Z,37.13
2023-03-27T01:24:49.455Z,37.13
2023-03-27T01:26:36.451Z,37.13
2023-03-27T01:28:07.908Z,37.23
2023-03-27T01:29:19.200Z,37.17
2023-03-27T01:30:30.040Z,37.16
2023-03-27T01:31:47.382Z,36.84
2023-03-27T01:33:37.632Z,36.84
2023-03-27T01:35:15.829Z,37.05
2023-03-27T01:36:50.885Z,37.15
2023-03-27T01:38:08.354Z,36.97
2023-03-27T01:39:36.524Z,37.26
2023-03-27T01:40:47.572Z,37.22
2023-03-27T01:41:57.568Z,37.31
2023-03-27T01:43:04.475Z,36.94
2023-03-27T01:44:15.664Z,37.00
2023-03-27T01:45:22.228Z,37.15
2023-03-27T01:46:32.239Z,37.33
2023-03-27T01:47:45.297Z,37.32
2023-03-27T01:48:56.624Z,37.40
2023-03-27T01:50:09.102Z,37.50
2023-03-27T01:51:17.166Z,37.32
2023-03-27T01:52:27.159Z,37.34
2023-03-27T01:53:34.940Z,37.11
2023-03-27T01:54:43.044Z,37.35
2023-03-27T01:55:51.336Z,37.32
2023-03-27T01:57:01.052Z,37.42
2023-03-27T01:58:10.706Z,37.43
2023-03-27T01:59:18.035Z,37.52
2023-03-27T02:00:25.053Z,37.51
2023-03-27T02:01:33.945Z,36.92
2023-03-27T02:02:39.381Z,37.27
2023-03-27T02:03:47.608Z,37.35
2023-03-27T02:04:56.020Z,37.45
2023-03-27T02:06:05.351Z,37.09
2023-03-27T02:07:13.625Z,37.34
2023-03-27T02:08:20.449Z,37.61
2023-03-27T02:09:27.291Z,37.61
2023-03-27T02:10:36.298Z,37.64
2023-03-27T02:11:43.445Z,37.64
2023-03-27T02:12:51.136Z,37.82
2023-03-27T02:13:58.586Z,37.81
2023-03-27T02:15:24.009Z,37.95
2023-03-27T02:16:32.464Z,38.11
2023-03-27T02:17:40.762Z,37.83
2023-03-27T02:18:52.585Z,37.79
2023-03-27T02:20:01.227Z,37.94
2023-03-27T02:21:05.636Z,37.96
2023-03-27T02:22:09.391Z,38.09
2023-03-27T02:23:13.660Z,38.01
2023-03-27T02:24:19.053Z,38.16
2023-03-27T02:25:25.785Z,38.04
2023-03-27T02:26:31.416Z,38.07
2023-03-27T02:27:42.209Z,37.79
2023-03-27T02:29:04.116Z,38.01
2023-03-27T02:30:18.628Z,37.88
2023-03-27T02:31:35.927Z,38.06
2023-03-27T02:32:49.714Z,37.66
2023-03-27T02:34:11.898Z,37.91
2023-03-27T02:35:35.017Z,38.00
2023-03-27T02:36:45.311Z,38.01
2023-03-27T02:37:59.687Z,37.78
2023-03-27T02:39:06.409Z,37.94
2023-03-27T02:40:18.042Z,37.99
2023-03-27T02:41:27.780Z,37.85
2023-03-27T02:42:42.862Z,38.06
2023-03-27T02:43:55.735Z,37.85
2023-03-27T02:45:07.480Z,37.93
2023-03-27T02:46:17.411Z,38.17
2023-03-27T02:47:26.116Z,38.17
2023-03-27T02:48:34.029Z,38.06
2023-03-27T02:49:41.343Z,38.14
2023-03-27T02:50:50.488Z,38.13
2023-03-27T02:52:01.083Z,38.10
2023-03-27T02:53:07.508Z,38.23
2023-03-27T02:54:16.053Z,38.02
2023-03-27T02:55:23.533Z,37.96
2023-03-27T02:56:31.720Z,37.98
2023-03-27T02:57:39.354Z,37.49
2023-03-27T02:58:47.166Z,37.72
2023-03-27T02:59:54.161Z,38.16
2023-03-27T03:01:00.790Z,38.13
2023-03-27T03:02:06.578Z,38.39
2023-03-27T03:03:18.327Z,38.33
2023-03-27T03:04:25.712Z,38.39
2023-03-27T03:05:29.957Z,38.24
2023-03-27T03:06:33.882Z,38.24
2023-03-27T03:07:37.940Z,38.06
2023-03-27T03:08:42.234Z,37.76
2023-03-27T03:09:47.018Z,37.75
2023-03-27T03:10:51.029Z,38.08
2023-03-27T03:11:55.400Z,38.37
2023-03-27T03:13:01.276Z,38.45
2023-03-27T03:14:05.392Z,38.36
2023-03-27T03:15:10.046Z,38.40
2023-03-27T03:16:14.426Z,38.23
2023-03-27T03:17:18.249Z,38.41
2023-03-27T03:18:22.156Z,38.48
2023-03-27T03:19:25.854Z,38.40
2023-03-27T03:20:29.539Z,38.41
2023-03-27T03:21:33.185Z,38.50
2023-03-27T03:22:37.114Z,38.68
2023-03-27T03:23:41.097Z,38.77
2023-03-27T03:24:45.355Z,38.62
2023-03-27T03:25:49.323Z,38.77
2023-03-27T03:26:52.976Z,38.81
2023-03-27T03:27:56.715Z,38.69
2023-03-27T03:29:02.129Z,38.72
2023-03-27T03:30:07.063Z,38.63
2023-03-27T03:32:14.736Z,38.69
2023-03-27T03:33:19.060Z,38.20
2023-03-27T03:34:22.733Z,38.53
2023-03-27T03:35:26.654Z,38.63
2023-03-27T03:36:30.352Z,38.31
2023-03-27T03:37:34.374Z,38.61
2023-03-27T03:38:38.737Z,38.51
2023-03-27T03:39:42.760Z,38.67
2023-03-27T03:40:46.916Z,38.65
2023-03-27T03:41:51.145Z,38.82
2023-03-27T03:42:54.873Z,38.60
2023-03-27T03:43:58.844Z,38.78
2023-03-27T03:45:04.372Z,38.77
2023-03-27T03:46:08.812Z,38.41
2023-03-27T03:47:12.593Z,38.53
2023-03-27T03:48:16.406Z,38.72
2023-03-27T03:49:21.111Z,38.70
2023-03-27T03:50:25.439Z,38.71
2023-03-27T03:51:29.199Z,38.91
2023-03-27T03:52:32.848Z,38.98
2023-03-27T03:53:36.467Z,38.93
2023-03-27T03:54:40.169Z,39.03
2023-03-27T03:55:44.285Z,39.03
2023-03-27T03:56:48.126Z,39.15
2023-03-27T03:57:52.068Z,39.14
2023-03-27T03:58:55.956Z,39.04
2023-03-27T04:00:00.188Z,38.89
2023-03-27T04:01:06.104Z,39.18
2023-03-27T04:02:10.488Z,39.23
2023-03-27T04:03:14.386Z,39.38
2023-03-27T04:04:19.152Z,39.26
2023-03-27T04:05:23.869Z,39.31
2023-03-27T04:06:28.129Z,39.40
2023-03-27T04:07:32.484Z,39.43
2023-03-27T04:08:36.473Z,39.47
2023-03-27T04:09:40.282Z,39.47
2023-03-27T04:10:43.955Z,39.09
2023-03-27T04:11:47.985Z,38.96
2023-03-27T04:12:52.646Z,39.12
2023-03-27T04:13:56.480Z,39.18
2023-03-27T04:15:00.150Z,39.29
2023-03-27T04:16:06.571Z,39.36
2023-03-27T04:17:10.464Z,39.46
2023-03-27T04:18:14.663Z,39.22
2023-03-27T04:19:18.643Z,39.12
2023-03-27T04:20:22.350Z,39.05
2023-03-27T04:21:26.727Z,39.08
2023-03-27T04:22:30.829Z,39.06
2023-03-27T04:23:34.683Z,39.40
2023-03-27T04:24:38.389Z,39.42
2023-03-27T04:25:42.028Z,39.63
2023-03-27T04:26:45.733Z,39.66
2023-03-27T04:27:49.976Z,39.33
2023-03-27T04:28:54.183Z,39.54
2023-03-27T04:29:58.601Z,39.62
2023-03-27T04:31:03.936Z,39.41
2023-03-27T04:32:09.546Z,39.48
2023-03-27T04:33:13.801Z,39.64
2023-03-27T04:34:17.649Z,39.55
2023-03-27T04:35:22.215Z,39.74
2023-03-27T04:36:25.948Z,39.90
2023-03-27T04:37:29.730Z,39.88
2023-03-27T04:38:33.415Z,39.93
2023-03-27T04:39:37.161Z,39.65
2023-03-27T04:40:43.555Z,39.75
2023-03-27T04:41:48.508Z,39.61
2023-03-27T04:42:52.979Z,39.36
2023-03-27T04:43:56.907Z,39.59
2023-03-27T04:45:00.683Z,39.40
2023-03-27T04:46:04.683Z,39.74
2023-03-27T04:47:11.141Z,39.80
2023-03-27T04:48:15.933Z,39.89
2023-03-27T04:49:20.708Z,39.42
2023-03-27T04:50:25.156Z,39.36
2023-03-27T04:51:29.736Z,38.98
2023-03-27T04:52:33.697Z,39.25
2023-03-27T04:53:38.321Z,39.44
2023-03-27T04:54:43.693Z,39.71
2023-03-27T04:55:48.165Z,39.81
2023-03-27T04:56:52.718Z,39.84
2023-03-27T04:57:57.562Z,39.92
2023-03-27T04:59:01.288Z,39.92
2023-03-27T05:00:06.986Z,40.01
2023-03-27T05:01:10.616Z,39.86
2023-03-27T05:02:16.034Z,39.90
2023-03-27T05:03:19.757Z,40.06
2023-03-27T05:04:23.802Z,40.02
2023-03-27T05:05:30.719Z,40.14
2023-03-27T05:06:37.934Z,39.41
2023-03-27T05:07:46.074Z,39.75
2023-03-27T05:08:50.136Z,39.41
2023-03-27T05:09:56.284Z,39.69
2023-03-27T05:11:00.016Z,39.55
2023-03-27T05:12:03.783Z,39.90
2023-03-27T05:13:09.711Z,39.95
2023-03-27T05:14:13.633Z,39.83
2023-03-27T05:15:18.398Z,39.92
2023-03-27T05:16:30.802Z,39.86
2023-03-27T05:17:38.751Z,39.77
2023-03-27T05:18:42.566Z,40.09
2023-03-27T05:19:46.199Z,40.16
2023-03-27T05:20:49.869Z,39.99
2023-03-27T05:21:54.266Z,40.11
2023-03-27T05:22:58.069Z,40.15
2023-03-27T05:24:02.020Z,40.13
2023-03-27T05:25:07.096Z,39.99
2023-03-27T05:26:10.925Z,40.07
2023-03-27T05:27:14.885Z,40.11
2023-03-27T05:28:18.795Z,39.40
2023-03-27T05:29:25.097Z,39.78
2023-03-27T05:30:34.239Z,39.89
2023-03-27T05:31:38.578Z,40.09
2023-03-27T05:32:48.981Z,40.16
2023-03-27T05:33:52.977Z,40.01
2023-03-27T05:34:56.619Z,40.12
2023-03-27T05:36:01.629Z,39.97
2023-03-27T05:37:05.744Z,40.25
2023-03-27T05:38:10.832Z,40.12
2023-03-27T05:39:16.282Z,40.10
2023-03-27T05:40:23.298Z,40.35
2023-03-27T05:41:28.651Z,40.40
2023-03-27T05:42:33.978Z,40.50
2023-03-27T05:43:38.282Z,40.22
2023-03-27T05:44:42.280Z,40.31
2023-03-27T05:45:47.409Z,40.24
2023-03-27T05:46:51.453Z,40.33
2023-03-27T05:48:00.612Z,40.18
2023-03-27T05:49:04.728Z,40.37
2023-03-27T05:50:10.992Z,40.50
2023-03-27T05:51:16.472Z,40.43
2023-03-27T05:52:21.843Z,40.28
2023-03-27T05:53:32.651Z,40.35
2023-03-27T05:54:36.322Z,40.30
2023-03-27T05:55:42.000Z,40.38
2023-03-27T05:56:46.004Z,40.47
2023-03-27T05:57:49.764Z,40.54
2023-03-27T05:58:54.189Z,40.53
2023-03-27T05:59:59.301Z,39.95
2023-03-27T06:01:05.026Z,40.17
2023-03-27T06:02:10.864Z,39.90
2023-03-27T06:03:17.845Z,40.42
2023-03-27T06:04:23.433Z,40.43
2023-03-27T06:05:31.091Z,40.38
2023-03-27T06:06:35.313Z,40.43
2023-03-27T06:07:42.936Z,40.15
2023-03-27T06:08:48.652Z,40.25
2023-03-27T06:09:54.049Z,40.35
2023-03-27T06:11:06.141Z,40.43
2023-03-27T06:12:11.482Z,40.35
2023-03-27T06:13:15.579Z,40.39
2023-03-27T06:14:19.244Z,40.51
2023-03-27T06:15:24.383Z,40.60
2023-03-27T06:16:28.634Z,40.58
2023-03-27T06:17:32.408Z,40.45
2023-03-27T06:18:37.789Z,40.69
2023-03-27T06:19:43.004Z,40.75
2023-03-27T06:20:47.357Z,40.80
2023-03-27T06:21:51.000Z,40.72
2023-03-27T06:22:56.174Z,40.73
2023-03-27T06:24:01.402Z,40.71
2023-03-27T06:25:07.489Z,40.72
2023-03-27T06:26:11.500Z,40.41
2023-03-27T06:27:15.165Z,40.32
2023-03-27T06:28:20.375Z,40.36
2023-03-27T06:29:25.743Z,40.50
2023-03-27T06:30:30.353Z,40.26
2023-03-27T06:31:35.445Z,40.42
2023-03-27T06:32:45.046Z,40.52
2023-03-27T06:33:50.480Z,40.57
2023-03-27T06:34:55.404Z,40.70
2023-03-27T06:36:00.414Z,40.60
2023-03-27T06:37:05.654Z,40.84
2023-03-27T06:38:09.728Z,40.13
2023-03-27T06:39:14.064Z,40.50
2023-03-27T06:40:19.557Z,40.18
2023-03-27T06:41:24.559Z,40.27
2023-03-27T06:42:28.548Z,40.35
2023-03-27T06:43:35.202Z,40.48
2023-03-27T06:44:39.836Z,40.67
2023-03-27T06:45:46.225Z,40.62
2023-03-27T06:46:50.310Z,40.58
2023-03-27T06:47:56.760Z,40.76
2023-03-27T06:49:19.383Z,40.67
2023-03-27T06:50:24.815Z,40.56
2023-03-27T06:51:29.040Z,40.57
2023-03-27T06:52:34.825Z,40.66
2023-03-27T06:53:38.533Z,40.84
2023-03-27T06:54:42.700Z,40.75
2023-03-27T06:55:46.854Z,40.80
2023-03-27T06:56:51.515Z,40.38
2023-03-27T06:57:57.037Z,40.71
2023-03-27T06:59:00.707Z,40.78
2023-03-27T07:00:05.358Z,40.91
2023-03-27T07:01:09.961Z,40.88
2023-03-27T07:02:14.221Z,40.50
2023-03-27T07:03:18.914Z,40.85
2023-03-27T07:04:24.682Z,40.46
2023-03-27T07:05:31.322Z,40.26
2023-03-27T07:06:34.976Z,40.57
2023-03-27T07:07:41.349Z,40.54
2023-03-27T07:08:47.695Z,40.70
2023-03-27T07:09:53.519Z,40.77
2023-03-27T07:11:10.843Z,40.96
2023-03-27T07:12:16.097Z,40.89
2023-03-27T07:13:20.294Z,40.84
2023-03-27T07:14:24.601Z,41.02
2023-03-27T07:15:29.115Z,41.13
2023-03-27T07:16:33.186Z,41.20
2023-03-27T07:17:48.079Z,41.18
2023-03-27T07:18:53.194Z,41.16
2023-03-27T07:19:59.250Z,41.18
2023-03-27T07:21:02.983Z,40.63
2023-03-27T07:22:07.290Z,41.21
2023-03-27T07:23:12.223Z,41.14
2023-03-27T07:24:16.661Z,41.23
2023-03-27T07:25:21.159Z,41.16
2023-03-27T07:26:25.394Z,40.95
2023-03-27T07:27:29.091Z,41.33
2023-03-27T07:28:32.813Z,41.39
2023-03-27T07:29:37.056Z,41.12
2023-03-27T07:30:42.095Z,41.06
2023-03-27T07:31:56.908Z,41.21
2023-03-27T07:33:03.680Z,41.28
2023-03-27T07:34:07.469Z,41.27
2023-03-27T07:35:13.842Z,41.35
2023-03-27T07:36:17.568Z,41.35
2023-03-27T07:37:21.176Z,41.34
2023-03-27T07:38:24.910Z,41.08
2023-03-27T07:39:28.729Z,41.04
2023-03-27T07:40:40.108Z,41.11
2023-03-27T07:41:48.408Z,40.46
2023-03-27T07:42:54.002Z,41.03
2023-03-27T07:43:58.775Z,41.11
2023-03-27T07:45:04.625Z,41.29
2023-03-27T07:46:08.848Z,41.38
2023-03-27T07:47:12.645Z,41.47
2023-03-27T07:48:17.646Z,41.51
2023-03-27T07:49:39.408Z,41.46
2023-03-27T07:50:47.286Z,41.58
2023-03-27T07:51:51.272Z,41.55
2023-03-27T07:52:55.580Z,41.58
2023-03-27T07:53:59.489Z,41.62
2023-03-27T07:55:03.241Z,41.71
2023-03-27T07:56:08.400Z,41.72
2023-03-27T07:57:12.317Z,41.69
2023-03-27T07:58:16.079Z,41.72
2023-03-27T07:59:20.616Z,41.55
2023-03-27T08:00:25.322Z,41.30
2023-03-27T08:01:30.187Z,41.40
2023-03-27T08:02:34.841Z,41.33
2023-03-27T08:03:39.448Z,41.56
2023-03-27T08:04:44.045Z,41.53
2023-03-27T08:05:55.932Z,41.66
2023-03-27T08:07:00.338Z,41.72
2023-03-27T08:08:04.161Z,41.58
2023-03-27T08:09:07.901Z,41.63
2023-03-27T08:10:12.511Z,41.65
2023-03-27T08:11:27.359Z,41.68
2023-03-27T08:12:32.744Z,41.69
2023-03-27T08:13:36.731Z,41.72
2023-03-27T08:14:40.455Z,41.48
2023-03-27T08:15:44.071Z,41.66
2023-03-27T08:16:48.183Z,41.41
2023-03-27T08:17:51.939Z,41.68
2023-03-27T08:18:56.119Z,41.56
2023-03-27T08:20:00.714Z,41.77
2023-03-27T08:21:08.611Z,41.72
2023-03-27T08:22:12.597Z,41.82
2023-03-27T08:23:16.354Z,41.71
2023-03-27T08:24:20.264Z,41.80
2023-03-27T08:25:24.465Z,41.81
2023-03-27T08:26:28.312Z,41.92
2023-03-27T08:27:31.962Z,41.42
2023-03-27T08:28:36.966Z,41.78
2023-03-27T08:29:40.689Z,41.81
2023-03-27T08:30:44.654Z,41.89
2023-03-27T08:31:48.343Z,41.10
2023-03-27T08:32:52.079Z,41.43
2023-03-27T08:33:55.842Z,41.60
2023-03-27T08:34:59.480Z,41.80
2023-03-27T08:36:04.517Z,41.86
2023-03-27T08:37:10.646Z,41.68
2023-03-27T08:38:25.751Z,41.98
2023-03-27T08:39:31.597Z,41.90
2023-03-27T08:40:37.033Z,42.01
2023-03-27T08:41:46.864Z,42.09
2023-03-27T08:42:57.075Z,42.13
2023-03-27T08:44:04.708Z,42.17
2023-03-27T08:45:18.281Z,42.20
2023-03-27T08:46:25.092Z,42.14
2023-03-27T08:47:35.433Z,41.88
2023-03-27T08:48:44.987Z,41.90
2023-03-27T08:49:53.711Z,41.83
2023-03-27T08:51:01.534Z,41.98
2023-03-27T08:52:14.178Z,42.09
2023-03-27T08:53:32.070Z,41.78
2023-03-27T08:54:37.508Z,41.84
2023-03-27T08:55:43.319Z,41.97
2023-03-27T08:56:48.148Z,42.06
2023-03-27T08:57:53.247Z,42.10
2023-03-27T08:58:58.292Z,42.10
2023-03-27T09:00:03.979Z,42.03
2023-03-27T09:01:15.947Z,41.91
2023-03-27T09:02:29.807Z,42.04
2023-03-27T09:03:40.065Z,42.03
2023-03-27T09:04:51.040Z,41.75
2023-03-27T09:06:00.285Z,42.07
2023-03-27T09:07:08.013Z,42.07
2023-03-27T09:08:22.506Z,42.08
2023-03-27T09:09:36.959Z,42.06
2023-03-27T09:10:47.090Z,41.99
2023-03-27T09:12:01.658Z,41.80
2023-03-27T09:13:11.092Z,42.00
2023-03-27T09:14:26.267Z,42.05
2023-03-27T09:15:33.234Z,42.04
2023-03-27T09:16:41.964Z,41.72
2023-03-27T09:17:50.913Z,41.85
2023-03-27T09:19:02.438Z,41.62
2023-03-27T09:20:12.068Z,41.43
2023-03-27T09:21:20.659Z,41.66
2023-03-27T09:22:27.522Z,41.73
2023-03-27T09:23:39.635Z,41.72
2023-03-27T09:24:46.916Z,41.73
2023-03-27T09:25:55.808Z,41.79
2023-03-27T09:27:11.780Z,41.89
2023-03-27T09:28:21.581Z,41.84
2023-03-27T09:29:26.420Z,41.58
2023-03-27T09:30:32.012Z,41.82
2023-03-27T09:31:39.629Z,41.77
2023-03-27T09:32:43.874Z,41.80
2023-03-27T09:33:47.594Z,41.81
2023-03-27T09:34:51.704Z,41.86
2023-03-27T09:35:56.326Z,41.63
2023-03-27T09:37:01.436Z,41.46
2023-03-27T09:38:15.294Z,41.56
2023-03-27T09:39:24.145Z,41.32
2023-03-27T09:40:31.262Z,41.44
2023-03-27T09:41:42.345Z,41.44
2023-03-27T09:42:46.343Z,41.47
2023-03-27T09:43:58.616Z,41.48
2023-03-27T09:45:06.626Z,41.49
2023-03-27T09:46:13.243Z,41.57
2023-03-27T09:47:18.846Z,41.19
2023-03-27T09:48:31.356Z,41.45
2023-03-27T09:49:37.099Z,41.46
2023-03-27T09:50:43.522Z,41.46
2023-03-27T09:51:49.708Z,41.37
2023-03-27T09:52:54.160Z,41.45
2023-03-27T09:54:00.728Z,41.38
2023-03-27T09:55:25.570Z,41.49
2023-03-27T09:56:29.715Z,41.49
2023-03-27T09:57:36.697Z,41.49
2023-03-27T09:58:44.104Z,41.46
2023-03-27T09:59:59.024Z,41.39
2023-03-27T10:01:14.902Z,41.21
2023-03-27T10:02:21.858Z,41.13
2023-03-27T10:03:25.986Z,41.09
2023-03-27T10:04:30.254Z,40.82
2023-03-27T10:05:34.429Z,40.93
2023-03-27T10:06:40.298Z,40.80
2023-03-27T10:07:45.503Z,40.82
2023-03-27T10:08:49.234Z,40.72
2023-03-27T10:10:08.043Z,40.59
2023-03-27T10:11:17.641Z,40.51
2023-03-27T10:12:23.089Z,40.30
2023-03-27T10:13:29.490Z,39.90
2023-03-27T10:14:36.247Z,39.71
2023-03-27T10:15:41.197Z,39.91
2023-03-27T10:16:46.303Z,39.82
2023-03-27T10:17:50.698Z,39.91
2023-03-27T10:18:57.496Z,40.05
2023-03-27T10:20:04.122Z,40.14
2023-03-27T10:21:10.794Z,40.08
2023-03-27T10:22:22.062Z,39.90
2023-03-27T10:23:27.043Z,40.13
2023-03-27T10:24:35.321Z,40.11
2023-03-27T10:25:49.750Z,39.89
2023-03-27T10:26:54.145Z,39.94
2023-03-27T10:28:08.991Z,39.84
2023-03-27T10:29:23.196Z,39.86
2023-03-27T10:30:29.205Z,39.98
2023-03-27T10:31:35.265Z,40.03
2023-03-27T10:32:47.627Z,39.46
2023-03-27T10:33:51.716Z,39.80
2023-03-27T10:34:57.603Z,39.67
2023-03-27T10:36:02.339Z,39.43
2023-03-27T10:37:20.619Z,39.40
2023-03-27T10:38:24.765Z,39.48
2023-03-27T10:39:30.829Z,39.08
2023-03-27T10:40:37.862Z,38.72
2023-03-27T10:41:43.936Z,38.49
2023-03-27T10:42:49.438Z,39.00
2023-03-27T10:43:53.877Z,38.69
2023-03-27T10:44:58.356Z,38.49
2023-03-27T10:46:05.085Z,38.90
2023-03-27T10:47:19.356Z,38.91
2023-03-27T10:48:36.495Z,38.60
2023-03-27T10:49:44.546Z,38.85
2023-03-27T10:50:54.567Z,38.71
2023-03-27T10:52:07.652Z,38.92
2023-03-27T10:53:18.204Z,38.64
2023-03-27T10:54:35.446Z,38.64
2023-03-27T10:55:52.017Z,38.46
2023-03-27T10:57:02.194Z,38.25
2023-03-27T10:58:14.012Z,38.65
2023-03-27T10:59:34.566Z,38.34
2023-03-27T11:00:52.137Z,38.29
2023-03-27T11:02:01.662Z,38.25
2023-03-27T11:03:12.793Z,38.56
2023-03-27T11:04:22.417Z,38.74
2023-03-27T11:05:30.823Z,38.84
2023-03-27T11:06:42.919Z,38.52
2023-03-27T11:07:52.166Z,38.75
2023-03-27T11:09:03.593Z,38.37
2023-03-27T11:10:15.396Z,38.56
2023-03-27T11:11:23.946Z,38.00
2023-03-27T11:12:33.357Z,38.18
2023-03-27T11:13:48.720Z,38.14
2023-03-27T11:14:57.082Z,37.93
2023-03-27T11:16:11.658Z,37.82
2023-03-27T11:17:19.358Z,38.16
2023-03-27T11:18:26.637Z,38.36
2023-03-27T11:19:39.134Z,38.47
2023-03-27T11:20:47.875Z,38.48
2023-03-27T11:21:55.439Z,38.49
2023-03-27T11:23:02.482Z,38.48
2023-03-27T11:24:12.025Z,38.57
2023-03-27T11:25:24.966Z,38.60
2023-03-27T11:26:34.999Z,38.62
2023-03-27T11:27:44.938Z,38.43
2023-03-27T11:28:55.537Z,38.70
2023-03-27T11:30:13.486Z,38.62
2023-03-27T11:31:29.166Z,38.59
2023-03-27T11:32:40.220Z,38.51
2023-03-27T11:33:50.702Z,38.46
2023-03-27T11:34:58.072Z,38.09
2023-03-27T11:36:12.611Z,38.26
2023-03-27T11:37:23.442Z,37.94
2023-03-27T11:38:30.918Z,38.02
2023-03-27T11:39:40.545Z,37.68
2023-03-27T11:40:46.682Z,38.11
2023-03-27T11:41:54.061Z,38.21
2023-03-27T11:42:59.632Z,38.11
2023-03-27T11:44:03.529Z,38.29
2023-03-27T11:45:12.210Z,38.35
2023-03-27T11:46:30.895Z,37.97
2023-03-27T11:47:53.794Z,37.61
2023-03-27T11:49:15.887Z,37.55
2023-03-27T11:50:33.958Z,37.71
2023-03-27T11:51:49.949Z,37.80
2023-03-27T11:53:31.286Z,38.01
2023-03-27T11:54:59.200Z,38.04
2023-03-27T11:56:16.163Z,38.09
2023-03-27T11:57:24.474Z,38.21
2023-03-27T11:58:35.809Z,38.21
2023-03-27T12:00:00.781Z,37.78
2023-03-27T12:01:12.201Z,38.14
2023-03-27T12:02:31.790Z,38.02
2023-03-27T12:04:09.759Z,38.05
2023-03-27T12:05:21.841Z,37.80
2023-03-27T12:06:34.766Z,38.18
2023-03-27T12:07:50.884Z,38.16
2023-03-27T12:09:17.623Z,38.18
2023-03-27T12:10:30.625Z,37.73
2023-03-27T12:11:42.025Z,37.81
2023-03-27T12:13:34.953Z,37.53
2023-03-27T12:15:05.793Z,37.45
2023-03-27T12:16:37.867Z,37.68
2023-03-27T12:17:54.288Z,37.64
2023-03-27T12:19:27.500Z,37.72
2023-03-27T12:20:58.276Z,37.89
2023-03-27T12:22:22.608Z,37.94
2023-03-27T12:23:42.616Z,37.78
2023-03-27T12:24:59.662Z,37.54
2023-03-27T12:26:46.745Z,37.58
2023-03-27T12:28:00.542Z,37.40
2023-03-27T12:29:23.339Z,37.42
2023-03-27T12:30:40.458Z,37.13
2023-03-27T12:31:58.177Z,36.97
2023-03-27T12:33:20.980Z,37.30
2023-03-27T12:34:38.189Z,37.57
2023-03-27T12:35:47.157Z,37.66
2023-03-27T12:36:52.001Z,37.55
2023-03-27T12:38:00.668Z,37.63
2023-03-27T12:39:14.613Z,37.68
2023-03-27T12:40:42.060Z,37.56
2023-03-27T12:41:47.423Z,37.51
2023-03-27T12:42:53.020Z,37.41
2023-03-27T12:43:59.280Z,37.58
2023-03-27T12:45:16.125Z,37.73
2023-03-27T12:46:37.516Z,37.69
2023-03-27T12:47:47.555Z,37.69
2023-03-27T12:48:58.479Z,37.59
2023-03-27T12:50:11.392Z,37.46
2023-03-27T12:51:16.835Z,37.78
2023-03-27T12:52:21.750Z,37.93
2023-03-27T12:53:56.035Z,37.74
2023-03-27T12:55:30.766Z,37.58
2023-03-27T12:56:38.821Z,37.83
2023-03-27T12:57:48.540Z,37.80
2023-03-27T12:58:54.217Z,37.77
2023-03-27T13:00:00.675Z,37.94
2023-03-27T13:01:11.691Z,37.99
2023-03-27T13:02:57.274Z,37.92
2023-03-27T13:04:17.890Z,37.77
2023-03-27T13:06:03.485Z,37.63
2023-03-27T13:07:15.895Z,37.47
2023-03-27T13:08:55.919Z,37.70
2023-03-27T13:10:18.356Z,37.73
2023-03-27T13:11:39.469Z,37.89
2023-03-27T13:13:06.310Z,37.89
2023-03-27T13:14:49.017Z,37.78
2023-03-27T13:16:20.755Z,37.69
2023-03-27T13:17:58.502Z,37.72
2023-03-27T13:19:23.613Z,37.59
2023-03-27T13:20:38.680Z,37.50
2023-03-27T13:21:52.742Z,37.34
2023-03-27T13:23:19.526Z,37.68
2023-03-27T13:24:44.584Z,37.76
2023-03-27T13:26:16.627Z,37.72
2023-03-27T13:27:36.328Z,37.72
2023-03-27T13:28:41.220Z,37.41
2023-03-27T13:29:53.136Z,37.65
2023-03-27T13:31:03.703Z,37.73
2023-03-27T13:32:32.314Z,37.30
2023-03-27T13:33:46.306Z,37.65
2023-03-27T13:35:06.011Z,37.53
2023-03-27T13:36:16.784Z,37.43
2023-03-27T13:37:54.656Z,37.42
2023-03-27T13:39:17.695Z,37.59
2023-03-27T13:40:25.670Z,37.09
2023-03-27T13:42:01.819Z,37.20
2023-03-27T13:43:16.654Z,37.30
2023-03-27T13:44:27.646Z,37.51
2023-03-27T13:45:43.795Z,37.31
2023-03-27T13:46:55.158Z,37.36
2023-03-27T13:48:29.869Z,37.54
2023-03-27T13:49:54.174Z,37.24
2023-03-27T13:51:26.686Z,36.86
2023-03-27T13:52:58.051Z,37.39
2023-03-27T13:54:40.891Z,36.76
2023-03-27T13:56:13.643Z,37.38
2023-03-27T13:57:31.816Z,37.38
2023-03-27T13:58:56.562Z,37.19
2023-03-27T14:00:42.542Z,37.28
2023-03-27T14:01:59.142Z,37.20
2023-03-27T14:03:39.825Z,37.32
2023-03-27T14:05:05.199Z,37.50
2023-03-27T14:06:44.507Z,37.46
2023-03-27T14:08:01.425Z,37.27
2023-03-27T14:09:15.415Z,37.26
2023-03-27T14:10:38.202Z,37.39
2023-03-27T14:12:01.566Z,37.24
2023-03-27T14:13:23.773Z,37.28
2023-03-27T14:14:44.359Z,37.28
2023-03-27T14:16:15.713Z,37.25
2023-03-27T14:17:45.902Z,37.41
2023-03-27T14:19:14.845Z,37.51
2023-03-27T14:20:27.672Z,37.47
2023-03-27T14:21:50.024Z,37.52
2023-03-27T14:22:58.798Z,37.19
2023-03-27T14:24:10.731Z,37.52
2023-03-27T14:25:18.375Z,37.31
2023-03-27T14:26:26.157Z,37.31
2023-03-27T14:27:33.183Z,37.01
2023-03-27T14:28:52.264Z,37.40
2023-03-27T14:30:20.165Z,37.41
2023-03-27T14:31:26.265Z,37.49
2023-03-27T14:32:30.484Z,37.29
2023-03-27T14:33:34.504Z,37.30
2023-03-27T14:35:56.577Z,37.04
2023-03-27T14:37:16.958Z,37.16
2023-03-27T14:38:24.162Z,36.95
2023-03-27T14:39:30.415Z,37.11
2023-03-27T14:40:36.887Z,37.18
2023-03-27T14:41:49.420Z,37.27
2023-03-27T14:42:57.218Z,37.14
2023-03-27T14:44:06.082Z,37.15
2023-03-27T14:45:17.049Z,37.38
2023-03-27T14:46:22.063Z,37.36
2023-03-27T14:47:25.935Z,37.34
2023-03-27T14:48:34.926Z,37.33
2023-03-27T14:49:44.689Z,37.36
2023-03-27T14:50:49.738Z,37.27
2023-03-27T14:52:01.124Z,37.34
2023-03-27T14:53:10.497Z,37.28
2023-03-27T14:54:21.785Z,37.04
2023-03-27T14:55:31.321Z,37.05
2023-03-27T14:56:39.556Z,37.34
2023-03-27T14:57:43.783Z,37.37